^^
Datos históricos de la estación: Murcia-Puente Tocinos
Diario Informe para Enero 12, 2019 Unidades:  Ambas    Inglés   Métrico
Diario Semanal Mensual Anual Configurable
  Máximo: Mínimo: Media:
Temperatura: 58.6 °F /  14.8 °C 34.3 °F /  1.3 °C 44.8 °F /  7.1 °C
Punto de rocio: 31.8 °F /  -0.1 °C 21.4 °F /  -5.9 °C 25.9 °F /  -3.4 °C
Humedad: 71% 27% 49%
Velocidad viento: 5.9mph /  9.5km/h - 3.1mph /  5km/h
Racha viento: 9.2mph /  14.8km/h - -
Viento- - SSW
Presión: 30.4 in /  1029.7 hPa 30.3 in /  1025.7 hPa -
Precipitación: 0 in /  0.0 mm    
Historical Graphs
 
 
Tabla de datos para Enero 12, 2019
Hora Temperatura Punto de rocio Presión Viento Velocidad viento Racha viento Humedad Intensidad lluvia(por hora) Nubes
00:00 41.7 °F /  5.4 °C 26.8 °F /  -2.9 °C 30.3in /  1026.5hPa SW 5mph /  8.0km/h 7mph /  11.3km/h 55% 0in /  0.0mm CLR
00:05 41.9 °F /  5.5 °C 26.4 °F /  -3.1 °C 30.3in /  1026.5hPa SSW 4mph /  6.4km/h 6.9mph /  11.1km/h 54% 0in /  0.0mm CLR
00:10 42.1 °F /  5.6 °C 26.6 °F /  -3.0 °C 30.3in /  1026.5hPa SW 5.2mph /  8.4km/h 5.8mph /  9.3km/h 54% 0in /  0.0mm CLR
00:15 42.3 °F /  5.7 °C 26.8 °F /  -2.9 °C 30.3in /  1026.5hPa SW 5.2mph /  8.4km/h 4.6mph /  7.4km/h 54% 0in /  0.0mm CLR
00:20 42.3 °F /  5.7 °C 25.3 °F /  -3.7 °C 30.3in /  1026.5hPa SSW 4mph /  6.4km/h 5.9mph /  9.5km/h 51% 0in /  0.0mm CLR
00:25 42.4 °F /  5.8 °C 26.4 °F /  -3.1 °C 30.3in /  1026.5hPa SSW 4mph /  6.4km/h 6.2mph /  10.0km/h 53% 0in /  0.0mm CLR
00:30 42.1 °F /  5.6 °C 26.6 °F /  -3.0 °C 30.3in /  1026.5hPa SSW 4.3mph /  6.9km/h 6.9mph /  11.1km/h 54% 0in /  0.0mm CLR
00:35 41.5 °F /  5.3 °C 26.1 °F /  -3.3 °C 30.3in /  1026.5hPa South 4.3mph /  6.9km/h 4.6mph /  7.4km/h 54% 0in /  0.0mm CLR
00:40 41.2 °F /  5.1 °C 26.2 °F /  -3.2 °C 30.3in /  1026.5hPa SSE 3.6mph /  5.8km/h 3.5mph /  5.6km/h 55% 0in /  0.0mm CLR
00:45 40.8 °F /  4.9 °C 26.8 °F /  -2.9 °C 30.3in /  1026.5hPa SSE 3.6mph /  5.8km/h 4.6mph /  7.4km/h 57% 0in /  0.0mm CLR
00:50 40.1 °F /  4.5 °C 26.1 °F /  -3.3 °C 30.3in /  1026.5hPa South 3.6mph /  5.8km/h 5.8mph /  9.3km/h 57% 0in /  0.0mm CLR
00:55 39.6 °F /  4.2 °C 26.4 °F /  -3.1 °C 30.3in /  1026.5hPa South 3.6mph /  5.8km/h 5.8mph /  9.3km/h 59% 0in /  0.0mm CLR
01:00 39.4 °F /  4.1 °C 26.2 °F /  -3.2 °C 30.3in /  1026.5hPa South 5mph /  8.0km/h 7mph /  11.3km/h 59% 0in /  0.0mm CLR
01:05 39.4 °F /  4.1 °C 26.2 °F /  -3.2 °C 30.3in /  1026.4hPa SSW 4.3mph /  6.9km/h 6.2mph /  10.0km/h 59% 0in /  0.0mm CLR
01:10 39.7 °F /  4.3 °C 25.7 °F /  -3.5 °C 30.3in /  1026.4hPa SW 4.7mph /  7.6km/h 5.8mph /  9.3km/h 57% 0in /  0.0mm CLR
01:15 40.1 °F /  4.5 °C 25.2 °F /  -3.8 °C 30.3in /  1026.4hPa SSW 4.7mph /  7.6km/h 5.8mph /  9.3km/h 55% 0in /  0.0mm CLR
01:20 40.5 °F /  4.7 °C 25.2 °F /  -3.8 °C 30.3in /  1026.4hPa SSW 4.7mph /  7.6km/h 5.8mph /  9.3km/h 54% 0in /  0.0mm CLR
01:25 40.8 °F /  4.9 °C 25 °F /  -3.9 °C 30.3in /  1026.4hPa SW 4.7mph /  7.6km/h 4.6mph /  7.4km/h 53% 0in /  0.0mm CLR
01:30 40.8 °F /  4.9 °C 25 °F /  -3.9 °C 30.3in /  1026.4hPa SW 4mph /  6.4km/h 3.5mph /  5.6km/h 53% 0in /  0.0mm CLR
01:35 40.8 °F /  4.9 °C 25 °F /  -3.9 °C 30.3in /  1026.4hPa SW 4mph /  6.4km/h 4.6mph /  7.4km/h 53% 0in /  0.0mm CLR
01:40 40.6 °F /  4.8 °C 24.4 °F /  -4.2 °C 30.3in /  1026.4hPa West 2.4mph /  3.9km/h 4.6mph /  7.4km/h 52% 0in /  0.0mm CLR
01:45 40.1 °F /  4.5 °C 23.9 °F /  -4.5 °C 30.3in /  1026.4hPa West 2.4mph /  3.9km/h 5.8mph /  9.3km/h 52% 0in /  0.0mm CLR
01:50 39.7 °F /  4.3 °C 24.1 °F /  -4.4 °C 30.3in /  1026.4hPa West 4mph /  6.4km/h 4.6mph /  7.4km/h 53% 0in /  0.0mm CLR
01:55 39.6 °F /  4.2 °C 23.7 °F /  -4.6 °C 30.3in /  1026.4hPa West 4mph /  6.4km/h 3.5mph /  5.6km/h 53% 0in /  0.0mm CLR
02:00 39.6 °F /  4.2 °C 24.3 °F /  -4.3 °C 30.3in /  1026.4hPa West 2mph /  3.2km/h 6mph /  9.7km/h 54% 0in /  0.0mm CLR
02:05 39.2 °F /  4.0 °C 23.9 °F /  -4.5 °C 30.3in /  1026.4hPa West 2.4mph /  3.9km/h 3.5mph /  5.6km/h 54% 0in /  0.0mm CLR
02:10 39 °F /  3.9 °C 24.3 °F /  -4.3 °C 30.3in /  1026.4hPa SSW 2.4mph /  3.9km/h 3.5mph /  5.6km/h 55% 0in /  0.0mm CLR
02:15 39 °F /  3.9 °C 24.6 °F /  -4.1 °C 30.3in /  1026.4hPa West 2.4mph /  3.9km/h 4.6mph /  7.4km/h 56% 0in /  0.0mm CLR
02:20 39 °F /  3.9 °C 25.2 °F /  -3.8 °C 30.3in /  1026.5hPa West 2.9mph /  4.7km/h 2.3mph /  3.7km/h 57% 0in /  0.0mm CLR
02:25 38.8 °F /  3.8 °C 25 °F /  -3.9 °C 30.3in /  1026.5hPa West 2.9mph /  4.7km/h 2.3mph /  3.7km/h 57% 0in /  0.0mm CLR
02:30 38.7 °F /  3.7 °C 25.2 °F /  -3.8 °C 30.3in /  1026.5hPa West 1.4mph /  2.3km/h 2.3mph /  3.7km/h 58% 0in /  0.0mm CLR
02:35 38.7 °F /  3.7 °C 25.5 °F /  -3.6 °C 30.3in /  1026.8hPa West 1.4mph /  2.3km/h 2.3mph /  3.7km/h 59% 0in /  0.0mm CLR
02:40 38.5 °F /  3.6 °C 25.9 °F /  -3.4 °C 30.3in /  1026.8hPa West 1.4mph /  2.3km/h 3.5mph /  5.6km/h 60% 0in /  0.0mm CLR
02:45 38.5 °F /  3.6 °C 26.6 °F /  -3.0 °C 30.3in /  1026.8hPa SSW 1.4mph /  2.3km/h 5.8mph /  9.3km/h 62% 0in /  0.0mm CLR
02:50 38.5 °F /  3.6 °C 27 °F /  -2.8 °C 30.3in /  1026.8hPa SW 3.6mph /  5.8km/h 7.4mph /  11.9km/h 63% 0in /  0.0mm CLR
02:55 38.5 °F /  3.6 °C 27 °F /  -2.8 °C 30.3in /  1026.8hPa SW 3.6mph /  5.8km/h 4.7mph /  7.6km/h 63% 0in /  0.0mm CLR
03:00 38.5 °F /  3.6 °C 26.2 °F /  -3.2 °C 30.3in /  1026.8hPa SW 5mph /  8.0km/h 7mph /  11.3km/h 61% 0in /  0.0mm CLR
03:05 38.5 °F /  3.6 °C 26.2 °F /  -3.2 °C 30.3in /  1026.8hPa WSW 4mph /  6.4km/h 4.6mph /  7.4km/h 61% 0in /  0.0mm CLR
03:10 38.5 °F /  3.6 °C 25.9 °F /  -3.4 °C 30.3in /  1026.8hPa SSW 4.3mph /  6.9km/h 5.8mph /  9.3km/h 60% 0in /  0.0mm CLR
03:15 38.3 °F /  3.5 °C 25.2 °F /  -3.8 °C 30.3in /  1026.8hPa SSW 4.3mph /  6.9km/h 4.6mph /  7.4km/h 59% 0in /  0.0mm CLR
03:20 38.3 °F /  3.5 °C 25.2 °F /  -3.8 °C 30.3in /  1027.1hPa SSW 3.6mph /  5.8km/h 6.9mph /  11.1km/h 59% 0in /  0.0mm CLR
03:25 38.1 °F /  3.4 °C 24.6 °F /  -4.1 °C 30.3in /  1027.1hPa SSW 3.6mph /  5.8km/h 8.1mph /  13.0km/h 58% 0in /  0.0mm CLR
03:30 37.9 °F /  3.3 °C 24.1 °F /  -4.4 °C 30.3in /  1027.1hPa SW 5.4mph /  8.7km/h 6.9mph /  11.1km/h 57% 0in /  0.0mm CLR
03:35 37.9 °F /  3.3 °C 23.5 °F /  -4.7 °C 30.3in /  1027.1hPa WSW 5.4mph /  8.7km/h 6.9mph /  11.1km/h 56% 0in /  0.0mm CLR
03:40 38.1 °F /  3.4 °C 23.4 °F /  -4.8 °C 30.3in /  1027.1hPa WSW 5.2mph /  8.4km/h 4.6mph /  7.4km/h 55% 0in /  0.0mm CLR
03:45 38.1 °F /  3.4 °C 22.8 °F /  -5.1 °C 30.3in /  1027.1hPa SW 5.2mph /  8.4km/h 4.6mph /  7.4km/h 54% 0in /  0.0mm CLR
03:50 38.1 °F /  3.4 °C 23.4 °F /  -4.8 °C 30.3in /  1027.1hPa SW 3.6mph /  5.8km/h 4.6mph /  7.4km/h 55% 0in /  0.0mm CLR
03:55 38.1 °F /  3.4 °C 22.8 °F /  -5.1 °C 30.3in /  1027.1hPa SW 3.6mph /  5.8km/h 6.9mph /  11.1km/h 54% 0in /  0.0mm CLR
04:00 38.1 °F /  3.4 °C 22.8 °F /  -5.1 °C 30.3in /  1027.1hPa SW 5mph /  8.0km/h 7mph /  11.3km/h 54% 0in /  0.0mm CLR
04:05 38.3 °F /  3.5 °C 22.6 °F /  -5.2 °C 30.3in /  1027.3hPa SW 4mph /  6.4km/h 5.8mph /  9.3km/h 53% 0in /  0.0mm CLR
04:10 38.5 °F /  3.6 °C 22.5 °F /  -5.3 °C 30.3in /  1027.3hPa SW 4.3mph /  6.9km/h 6.9mph /  11.1km/h 52% 0in /  0.0mm CLR
04:15 38.5 °F /  3.6 °C 21.9 °F /  -5.6 °C 30.3in /  1027.3hPa WSW 4.3mph /  6.9km/h 4.6mph /  7.4km/h 51% 0in /  0.0mm CLR
04:20 38.5 °F /  3.6 °C 21.4 °F /  -5.9 °C 30.3in /  1027.1hPa SW 4mph /  6.4km/h 4.6mph /  7.4km/h 50% 0in /  0.0mm CLR
04:25 38.5 °F /  3.6 °C 21.4 °F /  -5.9 °C 30.3in /  1027.1hPa SW 4mph /  6.4km/h 5.8mph /  9.3km/h 50% 0in /  0.0mm CLR
04:30 38.5 °F /  3.6 °C 21.4 °F /  -5.9 °C 30.3in /  1027.1hPa WSW 3.6mph /  5.8km/h 4.7mph /  7.6km/h 50% 0in /  0.0mm CLR
04:35 38.5 °F /  3.6 °C 21.4 °F /  -5.9 °C 30.3in /  1027.0hPa WSW 3.6mph /  5.8km/h 3.5mph /  5.6km/h 50% 0in /  0.0mm CLR
04:40 38.5 °F /  3.6 °C 23.4 °F /  -4.8 °C 30.3in /  1027.0hPa WSW 2.4mph /  3.9km/h 1.2mph /  1.9km/h 54% 0in /  0.0mm CLR
04:45 38.1 °F /  3.4 °C 24.6 °F /  -4.1 °C 30.3in /  1027.0hPa WSW 2.4mph /  3.9km/h 2.9mph /  4.7km/h 58% 0in /  0.0mm CLR
04:50 37.6 °F /  3.1 °C 25.7 °F /  -3.5 °C 30.3in /  1027.1hPa SSE 1.8mph /  2.9km/h 3.5mph /  5.6km/h 62% 0in /  0.0mm CLR
04:55 36.9 °F /  2.7 °C 25.9 °F /  -3.4 °C 30.3in /  1027.1hPa SSE 1.8mph /  2.9km/h 4.6mph /  7.4km/h 64% 0in /  0.0mm CLR
05:00 36.7 °F /  2.6 °C 25.5 °F /  -3.6 °C 30.3in /  1027.1hPa SSE 2mph /  3.2km/h 5mph /  8.0km/h 64% 0in /  0.0mm CLR
05:05 36.7 °F /  2.6 °C 26.1 °F /  -3.3 °C 30.3in /  1027.1hPa SSE 2.9mph /  4.7km/h 4.6mph /  7.4km/h 65% 0in /  0.0mm CLR
05:10 36.5 °F /  2.5 °C 25.9 °F /  -3.4 °C 30.3in /  1027.1hPa SSE 3.1mph /  5.0km/h 3.6mph /  5.8km/h 65% 0in /  0.0mm CLR
05:15 36.3 °F /  2.4 °C 25.7 °F /  -3.5 °C 30.3in /  1027.1hPa SSE 3.1mph /  5.0km/h 2.3mph /  3.7km/h 65% 0in /  0.0mm CLR
05:20 36.3 °F /  2.4 °C 25.7 °F /  -3.5 °C 30.3in /  1027.2hPa SSE 2mph /  3.2km/h 2.9mph /  4.7km/h 65% 0in /  0.0mm CLR
05:25 36.3 °F /  2.4 °C 25.3 °F /  -3.7 °C 30.3in /  1027.2hPa SSE 2mph /  3.2km/h 4.6mph /  7.4km/h 64% 0in /  0.0mm CLR
05:30 36.5 °F /  2.5 °C 25.9 °F /  -3.4 °C 30.3in /  1027.2hPa SE 2.4mph /  3.9km/h 4.6mph /  7.4km/h 65% 0in /  0.0mm CLR
05:35 36.1 °F /  2.3 °C 25.9 °F /  -3.4 °C 30.3in /  1027.2hPa South 2.4mph /  3.9km/h 4.6mph /  7.4km/h 66% 0in /  0.0mm CLR
05:40 35.8 °F /  2.1 °C 26.2 °F /  -3.2 °C 30.3in /  1027.2hPa SSE 3.6mph /  5.8km/h 4.7mph /  7.6km/h 68% 0in /  0.0mm CLR
05:45 35.2 °F /  1.8 °C 26.1 °F /  -3.3 °C 30.3in /  1027.2hPa South 3.6mph /  5.8km/h 5.8mph /  9.3km/h 69% 0in /  0.0mm CLR
05:50 35.1 °F /  1.7 °C 26.2 °F /  -3.2 °C 30.3in /  1027.2hPa SSE 3.6mph /  5.8km/h 4.6mph /  7.4km/h 70% 0in /  0.0mm CLR
05:55 34.9 °F /  1.6 °C 26.1 °F /  -3.3 °C 30.3in /  1027.2hPa SSE 3.6mph /  5.8km/h 6.2mph /  10.0km/h 70% 0in /  0.0mm CLR
06:00 34.5 °F /  1.4 °C 26.1 °F /  -3.3 °C 30.3in /  1027.2hPa SSE 5mph /  8.0km/h 6mph /  9.7km/h 71% 0in /  0.0mm CLR
06:05 34.3 °F /  1.3 °C 25.9 °F /  -3.4 °C 30.3in /  1027.2hPa South 4mph /  6.4km/h 4.6mph /  7.4km/h 71% 0in /  0.0mm CLR
06:10 34.3 °F /  1.3 °C 25.9 °F /  -3.4 °C 30.3in /  1027.2hPa South 4mph /  6.4km/h 5.2mph /  8.4km/h 71% 0in /  0.0mm CLR
06:15 34.3 °F /  1.3 °C 25.9 °F /  -3.4 °C 30.3in /  1027.2hPa South 4mph /  6.4km/h 3.5mph /  5.6km/h 71% 0in /  0.0mm CLR
06:20 34.3 °F /  1.3 °C 25.9 °F /  -3.4 °C 30.3in /  1027.4hPa South 3.1mph /  5.0km/h 4.6mph /  7.4km/h 71% 0in /  0.0mm CLR
06:25 34.3 °F /  1.3 °C 25.9 °F /  -3.4 °C 30.3in /  1027.4hPa South 3.1mph /  5.0km/h 4.6mph /  7.4km/h 71% 0in /  0.0mm CLR
06:30 34.5 °F /  1.4 °C 25.7 °F /  -3.5 °C 30.3in /  1027.4hPa SSE 2.9mph /  4.7km/h 4.6mph /  7.4km/h 70% 0in /  0.0mm CLR
06:35 34.7 °F /  1.5 °C 25.5 °F /  -3.6 °C 30.3in /  1027.2hPa SSE 2.9mph /  4.7km/h 4.6mph /  7.4km/h 69% 0in /  0.0mm CLR
06:40 34.7 °F /  1.5 °C 25.2 °F /  -3.8 °C 30.3in /  1027.2hPa South 3.1mph /  5.0km/h 4.6mph /  7.4km/h 68% 0in /  0.0mm CLR
06:45 34.7 °F /  1.5 °C 25 °F /  -3.9 °C 30.3in /  1027.2hPa SSE 3.1mph /  5.0km/h 4.6mph /  7.4km/h 67% 0in /  0.0mm CLR
06:50 34.9 °F /  1.6 °C 25 °F /  -3.9 °C 30.3in /  1027.4hPa SSE 3.6mph /  5.8km/h 5.9mph /  9.5km/h 67% 0in /  0.0mm CLR
06:55 34.9 °F /  1.6 °C 24.6 °F /  -4.1 °C 30.3in /  1027.4hPa SSE 3.6mph /  5.8km/h 4.6mph /  7.4km/h 66% 0in /  0.0mm CLR
07:00 34.9 °F /  1.6 °C 24.6 °F /  -4.1 °C 30.3in /  1027.4hPa SSE 3mph /  4.8km/h 5mph /  8.0km/h 66% 0in /  0.0mm CLR
07:05 34.7 °F /  1.5 °C 24.1 °F /  -4.4 °C 30.3in /  1027.5hPa South 3.6mph /  5.8km/h 3.5mph /  5.6km/h 65% 0in /  0.0mm CLR
07:10 34.9 °F /  1.6 °C 23.9 °F /  -4.5 °C 30.3in /  1027.5hPa SSW 2.9mph /  4.7km/h 5.8mph /  9.3km/h 64% 0in /  0.0mm CLR
07:15 35.2 °F /  1.8 °C 23.9 °F /  -4.5 °C 30.3in /  1027.5hPa SSW 2.9mph /  4.7km/h 3.5mph /  5.6km/h 63% 0in /  0.0mm CLR
07:20 35.6 °F /  2.0 °C 24.3 °F /  -4.3 °C 30.3in /  1027.6hPa WSW 3.1mph /  5.0km/h 3.5mph /  5.6km/h 63% 0in /  0.0mm CLR
07:25 35.8 °F /  2.1 °C 24.1 °F /  -4.4 °C 30.3in /  1027.6hPa WSW 3.1mph /  5.0km/h 5.2mph /  8.4km/h 62% 0in /  0.0mm CLR
07:30 35.8 °F /  2.1 °C 22.8 °F /  -5.1 °C 30.3in /  1027.6hPa SW 2.9mph /  4.7km/h 4.6mph /  7.4km/h 59% 0in /  0.0mm CLR
07:35 35.8 °F /  2.1 °C 22.8 °F /  -5.1 °C 30.4in /  1027.7hPa SW 2.9mph /  4.7km/h 4.7mph /  7.6km/h 59% 0in /  0.0mm CLR
07:40 36 °F /  2.2 °C 23 °F /  -5.0 °C 30.4in /  1027.7hPa South 3.6mph /  5.8km/h 5.8mph /  9.3km/h 59% 0in /  0.0mm CLR
07:45 36 °F /  2.2 °C 23.4 °F /  -4.8 °C 30.4in /  1027.7hPa SSW 3.6mph /  5.8km/h 4.6mph /  7.4km/h 60% 0in /  0.0mm CLR
07:50 36 °F /  2.2 °C 23.7 °F /  -4.6 °C 30.4in /  1027.9hPa SSW 3.1mph /  5.0km/h 4.6mph /  7.4km/h 61% 0in /  0.0mm CLR
07:55 35.8 °F /  2.1 °C 23.5 °F /  -4.7 °C 30.4in /  1027.9hPa SSW 3.1mph /  5.0km/h 3.5mph /  5.6km/h 61% 0in /  0.0mm CLR
08:00 35.6 °F /  2.0 °C 23.7 °F /  -4.6 °C 30.4in /  1027.9hPa SSW 2mph /  3.2km/h 5mph /  8.0km/h 62% 0in /  0.0mm CLR
08:05 35.4 °F /  1.9 °C 23.7 °F /  -4.6 °C 30.4in /  1028.0hPa SSE 2.9mph /  4.7km/h 4.6mph /  7.4km/h 62% 0in /  0.0mm CLR
08:10 35.1 °F /  1.7 °C 23.4 °F /  -4.8 °C 30.4in /  1028.0hPa South 2.9mph /  4.7km/h 3.6mph /  5.8km/h 62% 0in /  0.0mm CLR
08:15 34.9 °F /  1.6 °C 23.2 °F /  -4.9 °C 30.4in /  1028.0hPa South 2.9mph /  4.7km/h 4.6mph /  7.4km/h 62% 0in /  0.0mm CLR
08:20 34.9 °F /  1.6 °C 22.8 °F /  -5.1 °C 30.4in /  1028.0hPa SW 3.1mph /  5.0km/h 4.6mph /  7.4km/h 61% 0in /  0.0mm CLR
08:25 35.4 °F /  1.9 °C 22.5 °F /  -5.3 °C 30.4in /  1028.0hPa West 3.1mph /  5.0km/h 3.6mph /  5.8km/h 59% 0in /  0.0mm CLR
08:30 35.8 °F /  2.1 °C 21.9 °F /  -5.6 °C 30.4in /  1028.0hPa WSW 3.1mph /  5.0km/h 4.6mph /  7.4km/h 57% 0in /  0.0mm CLR
08:35 36 °F /  2.2 °C 21.7 °F /  -5.7 °C 30.4in /  1028.2hPa WSW 3.1mph /  5.0km/h 3.5mph /  5.6km/h 56% 0in /  0.0mm CLR
08:40 36.1 °F /  2.3 °C 22.5 °F /  -5.3 °C 30.4in /  1028.2hPa SE 2.9mph /  4.7km/h 3.6mph /  5.8km/h 57% 0in /  0.0mm CLR
08:45 35.6 °F /  2.0 °C 23.2 °F /  -4.9 °C 30.4in /  1028.2hPa SE 2.9mph /  4.7km/h 4.6mph /  7.4km/h 60% 0in /  0.0mm CLR
08:50 35.1 °F /  1.7 °C 23.4 °F /  -4.8 °C 30.4in /  1028.5hPa SSE 2.9mph /  4.7km/h 4.6mph /  7.4km/h 62% 0in /  0.0mm CLR
08:55 34.9 °F /  1.6 °C 23.5 °F /  -4.7 °C 30.4in /  1028.5hPa South 2.9mph /  4.7km/h 4.6mph /  7.4km/h 63% 0in /  0.0mm CLR
09:00 34.7 °F /  1.5 °C 23.4 °F /  -4.8 °C 30.4in /  1028.5hPa South 3mph /  4.8km/h 5mph /  8.0km/h 63% 0in /  0.0mm CLR
09:05 34.9 °F /  1.6 °C 23.5 °F /  -4.7 °C 30.4in /  1028.6hPa SSW 3.1mph /  5.0km/h 4mph /  6.4km/h 63% 0in /  0.0mm CLR
09:10 35.1 °F /  1.7 °C 23 °F /  -5.0 °C 30.4in /  1028.6hPa SW 2.9mph /  4.7km/h 4.6mph /  7.4km/h 61% 0in /  0.0mm CLR
09:15 36 °F /  2.2 °C 23 °F /  -5.0 °C 30.4in /  1028.6hPa South 2.9mph /  4.7km/h 4.6mph /  7.4km/h 59% 0in /  0.0mm CLR
09:20 36.3 °F /  2.4 °C 23.4 °F /  -4.8 °C 30.4in /  1028.8hPa South 3.1mph /  5.0km/h 4.6mph /  7.4km/h 59% 0in /  0.0mm CLR
09:25 36.9 °F /  2.7 °C 23.4 °F /  -4.8 °C 30.4in /  1028.8hPa SSW 3.1mph /  5.0km/h 4.6mph /  7.4km/h 58% 0in /  0.0mm CLR
09:30 37.2 °F /  2.9 °C 22.8 °F /  -5.1 °C 30.4in /  1028.8hPa SE 2.9mph /  4.7km/h 4.6mph /  7.4km/h 56% 0in /  0.0mm CLR
09:35 37.9 °F /  3.3 °C 24.4 °F /  -4.2 °C 30.4in /  1029.0hPa SE 2.9mph /  4.7km/h 3.5mph /  5.6km/h 58% 0in /  0.0mm CLR
09:40 38.1 °F /  3.4 °C 24.3 °F /  -4.3 °C 30.4in /  1029.0hPa SSE 2.4mph /  3.9km/h 4.6mph /  7.4km/h 57% 0in /  0.0mm CLR
09:45 38.1 °F /  3.4 °C 23.7 °F /  -4.6 °C 30.4in /  1029.0hPa SE 2.4mph /  3.9km/h 4.6mph /  7.4km/h 56% 0in /  0.0mm CLR
09:50 38.5 °F /  3.6 °C 24.1 °F /  -4.4 °C 30.4in /  1029.2hPa South 3.1mph /  5.0km/h 4.6mph /  7.4km/h 56% 0in /  0.0mm CLR
09:55 38.7 °F /  3.7 °C 24.3 °F /  -4.3 °C 30.4in /  1029.2hPa South 3.1mph /  5.0km/h 4.6mph /  7.4km/h 56% 0in /  0.0mm CLR
10:00 38.8 °F /  3.8 °C 23.2 °F /  -4.9 °C 30.4in /  1029.2hPa SSW 2mph /  3.2km/h 5mph /  8.0km/h 53% 0in /  0.0mm CLR
10:05 39.4 °F /  4.1 °C 23.2 °F /  -4.9 °C 30.4in /  1029.4hPa SW 2.9mph /  4.7km/h 4.7mph /  7.6km/h 52% 0in /  0.0mm CLR
10:10 39.7 °F /  4.3 °C 23.2 °F /  -4.9 °C 30.4in /  1029.4hPa WSW 3.1mph /  5.0km/h 3.5mph /  5.6km/h 51% 0in /  0.0mm CLR
10:15 40.3 °F /  4.6 °C 22.1 °F /  -5.5 °C 30.4in /  1029.4hPa SW 3.1mph /  5.0km/h 5.8mph /  9.3km/h 48% 0in /  0.0mm CLR
10:20 40.6 °F /  4.8 °C 22.5 °F /  -5.3 °C 30.4in /  1029.6hPa WSW 3.6mph /  5.8km/h 3.5mph /  5.6km/h 48% 0in /  0.0mm CLR
10:25 41.2 °F /  5.1 °C 22.5 °F /  -5.3 °C 30.4in /  1029.6hPa South 3.6mph /  5.8km/h 4.6mph /  7.4km/h 47% 0in /  0.0mm CLR
10:30 41.5 °F /  5.3 °C 22.3 °F /  -5.4 °C 30.4in /  1029.6hPa WSW 2.9mph /  4.7km/h 4.6mph /  7.4km/h 46% 0in /  0.0mm CLR
10:35 41.9 °F /  5.5 °C 22.6 °F /  -5.2 °C 30.4in /  1029.7hPa West 2.9mph /  4.7km/h 4.6mph /  7.4km/h 46% 0in /  0.0mm CLR
10:40 42.4 °F /  5.8 °C 22.6 °F /  -5.2 °C 30.4in /  1029.7hPa SW 2.9mph /  4.7km/h 3.6mph /  5.8km/h 45% 0in /  0.0mm CLR
10:45 43 °F /  6.1 °C 22.5 °F /  -5.3 °C 30.4in /  1029.7hPa SW 2.9mph /  4.7km/h 6.9mph /  11.1km/h 44% 0in /  0.0mm CLR
10:50 43.2 °F /  6.2 °C 22.1 °F /  -5.5 °C 30.4in /  1029.7hPa SW 4mph /  6.4km/h 8.1mph /  13.0km/h 43% 0in /  0.0mm CLR
10:55 43.3 °F /  6.3 °C 22.3 °F /  -5.4 °C 30.4in /  1029.7hPa SW 4mph /  6.4km/h 6.9mph /  11.1km/h 43% 0in /  0.0mm CLR
11:00 43.5 °F /  6.4 °C 21.9 °F /  -5.6 °C 30.4in /  1029.7hPa SW 5mph /  8.0km/h 7mph /  11.3km/h 42% 0in /  0.0mm CLR
11:05 44.1 °F /  6.7 °C 22.5 °F /  -5.3 °C 30.4in /  1029.6hPa South 4.3mph /  6.9km/h 7.6mph /  12.2km/h 42% 0in /  0.0mm CLR
11:10 44.1 °F /  6.7 °C 22.5 °F /  -5.3 °C 30.4in /  1029.6hPa SW 4.3mph /  6.9km/h 8.1mph /  13.0km/h 42% 0in /  0.0mm CLR
11:15 43.9 °F /  6.6 °C 22.3 °F /  -5.4 °C 30.4in /  1029.6hPa SW 4.3mph /  6.9km/h 6.9mph /  11.1km/h 42% 0in /  0.0mm CLR
11:20 44.2 °F /  6.8 °C 22.6 °F /  -5.2 °C 30.4in /  1029.5hPa SSW 5.4mph /  8.7km/h 8.1mph /  13.0km/h 42% 0in /  0.0mm CLR
11:25 44.6 °F /  7.0 °C 22.8 °F /  -5.1 °C 30.4in /  1029.5hPa SSW 5.4mph /  8.7km/h 8.7mph /  14.0km/h 42% 0in /  0.0mm CLR
11:30 44.8 °F /  7.1 °C 23.2 °F /  -4.9 °C 30.4in /  1029.5hPa SSE 5.2mph /  8.4km/h 9.2mph /  14.8km/h 42% 0in /  0.0mm CLR
11:35 45.1 °F /  7.3 °C 23.4 °F /  -4.8 °C 30.4in /  1029.4hPa WSW 5.2mph /  8.4km/h 5.8mph /  9.3km/h 42% 0in /  0.0mm CLR
11:40 45.3 °F /  7.4 °C 23 °F /  -5.0 °C 30.4in /  1029.4hPa SSW 4.7mph /  7.6km/h 6.9mph /  11.1km/h 41% 0in /  0.0mm CLR
11:45 45.9 °F /  7.7 °C 23.5 °F /  -4.7 °C 30.4in /  1029.4hPa SW 4.7mph /  7.6km/h 4.6mph /  7.4km/h 41% 0in /  0.0mm CLR
11:50 46 °F /  7.8 °C 23.5 °F /  -4.7 °C 30.4in /  1029.3hPa SW 4mph /  6.4km/h 5.8mph /  9.3km/h 41% 0in /  0.0mm CLR
11:55 46.4 °F /  8.0 °C 23.9 °F /  -4.5 °C 30.4in /  1029.3hPa SW 4mph /  6.4km/h 6.9mph /  11.1km/h 41% 0in /  0.0mm CLR
12:00 46.8 °F /  8.2 °C 23.5 °F /  -4.7 °C 30.4in /  1029.3hPa SW 5mph /  8.0km/h 9mph /  14.5km/h 40% 0in /  0.0mm CLR
12:05 46.8 °F /  8.2 °C 23.7 °F /  -4.6 °C 30.4in /  1029.1hPa West 4mph /  6.4km/h 6.9mph /  11.1km/h 40% 0in /  0.0mm CLR
12:10 47.1 °F /  8.4 °C 24.1 °F /  -4.4 °C 30.4in /  1029.1hPa South 4.7mph /  7.6km/h 6.9mph /  11.1km/h 40% 0in /  0.0mm CLR
12:15 47.5 °F /  8.6 °C 23.2 °F /  -4.9 °C 30.4in /  1029.1hPa West 4.7mph /  7.6km/h 8.1mph /  13.0km/h 38% 0in /  0.0mm CLR
12:20 47.8 °F /  8.8 °C 23.4 °F /  -4.8 °C 30.4in /  1028.8hPa SW 4.7mph /  7.6km/h 6.9mph /  11.1km/h 38% 0in /  0.0mm CLR
12:25 48 °F /  8.9 °C 23 °F /  -5.0 °C 30.4in /  1028.8hPa South 4.7mph /  7.6km/h 8.1mph /  13.0km/h 37% 0in /  0.0mm CLR
12:30 48.6 °F /  9.2 °C 22.8 °F /  -5.1 °C 30.4in /  1028.8hPa WSW 4.3mph /  6.9km/h 5.8mph /  9.3km/h 36% 0in /  0.0mm CLR
12:35 48.7 °F /  9.3 °C 22.8 °F /  -5.1 °C 30.4in /  1028.5hPa West 4.3mph /  6.9km/h 6.9mph /  11.1km/h 36% 0in /  0.0mm CLR
12:40 48.9 °F /  9.4 °C 22.5 °F /  -5.3 °C 30.4in /  1028.5hPa South 4mph /  6.4km/h 5.8mph /  9.3km/h 35% 0in /  0.0mm CLR
12:45 49.5 °F /  9.7 °C 22.8 °F /  -5.1 °C 30.4in /  1028.5hPa West 4mph /  6.4km/h 5.9mph /  9.5km/h 35% 0in /  0.0mm CLR
12:50 49.6 °F /  9.8 °C 22.5 °F /  -5.3 °C 30.4in /  1028.2hPa WSW 4mph /  6.4km/h 8.1mph /  13.0km/h 34% 0in /  0.0mm CLR
12:55 49.8 °F /  9.9 °C 22.5 °F /  -5.3 °C 30.4in /  1028.2hPa South 4mph /  6.4km/h 5.8mph /  9.3km/h 34% 0in /  0.0mm CLR
13:00 50 °F /  10.0 °C 22.6 °F /  -5.2 °C 30.4in /  1028.2hPa SSW 5mph /  8.0km/h 7mph /  11.3km/h 34% 0in /  0.0mm CLR
13:05 50.4 °F /  10.2 °C 23 °F /  -5.0 °C 30.4in /  1028.0hPa WSW 4.7mph /  7.6km/h 5.8mph /  9.3km/h 34% 0in /  0.0mm CLR
13:10 50.5 °F /  10.3 °C 23.2 °F /  -4.9 °C 30.4in /  1028.0hPa SW 4.3mph /  6.9km/h 6.9mph /  11.1km/h 34% 0in /  0.0mm CLR
13:15 50.9 °F /  10.5 °C 22.8 °F /  -5.1 °C 30.4in /  1028.0hPa SSW 4.3mph /  6.9km/h 5.9mph /  9.5km/h 33% 0in /  0.0mm CLR
13:20 51.1 °F /  10.6 °C 22.8 °F /  -5.1 °C 30.4in /  1027.8hPa West 3.6mph /  5.8km/h 5.8mph /  9.3km/h 33% 0in /  0.0mm CLR
13:25 51.3 °F /  10.7 °C 23.2 °F /  -4.9 °C 30.4in /  1027.8hPa SE 3.6mph /  5.8km/h 6.4mph /  10.3km/h 33% 0in /  0.0mm CLR
13:30 51.4 °F /  10.8 °C 23.4 °F /  -4.8 °C 30.4in /  1027.8hPa SE 3.6mph /  5.8km/h 6.9mph /  11.1km/h 33% 0in /  0.0mm CLR
13:35 52 °F /  11.1 °C 23.7 °F /  -4.6 °C 30.3in /  1027.6hPa SSE 3.6mph /  5.8km/h 4.6mph /  7.4km/h 33% 0in /  0.0mm CLR
13:40 52.2 °F /  11.2 °C 23.9 °F /  -4.5 °C 30.3in /  1027.6hPa South 4mph /  6.4km/h 4.6mph /  7.4km/h 33% 0in /  0.0mm CLR
13:45 52.5 °F /  11.4 °C 23.5 °F /  -4.7 °C 30.3in /  1027.6hPa SE 4mph /  6.4km/h 4.6mph /  7.4km/h 32% 0in /  0.0mm CLR
13:50 52.7 °F /  11.5 °C 24.4 °F /  -4.2 °C 30.3in /  1027.3hPa WSW 3.1mph /  5.0km/h 5.8mph /  9.3km/h 33% 0in /  0.0mm CLR
13:55 52.9 °F /  11.6 °C 24.4 °F /  -4.2 °C 30.3in /  1027.3hPa SW 3.1mph /  5.0km/h 4.6mph /  7.4km/h 33% 0in /  0.0mm CLR
14:00 53.1 °F /  11.7 °C 24.6 °F /  -4.1 °C 30.3in /  1027.3hPa SW 3mph /  4.8km/h 7mph /  11.3km/h 33% 0in /  0.0mm CLR
14:05 53.1 °F /  11.7 °C 24.6 °F /  -4.1 °C 30.3in /  1027.1hPa WNW 3.1mph /  5.0km/h 4.7mph /  7.6km/h 33% 0in /  0.0mm CLR
14:10 53.1 °F /  11.7 °C 25.3 °F /  -3.7 °C 30.3in /  1027.1hPa SW 3.1mph /  5.0km/h 5.8mph /  9.3km/h 34% 0in /  0.0mm CLR
14:15 53.2 °F /  11.8 °C 25.5 °F /  -3.6 °C 30.3in /  1027.1hPa ESE 3.1mph /  5.0km/h 2.3mph /  3.7km/h 34% 0in /  0.0mm CLR
14:20 53.6 °F /  12.0 °C 25.9 °F /  -3.4 °C 30.3in /  1026.8hPa West 2.4mph /  3.9km/h 2.9mph /  4.7km/h 34% 0in /  0.0mm CLR
14:25 54.1 °F /  12.3 °C 26.4 °F /  -3.1 °C 30.3in /  1026.8hPa SSW 2.4mph /  3.9km/h 4.3mph /  6.9km/h 34% 0in /  0.0mm CLR
14:30 54.1 °F /  12.3 °C 27.1 °F /  -2.7 °C 30.3in /  1026.8hPa SSW 2mph /  3.2km/h 3.5mph /  5.6km/h 35% 0in /  0.0mm CLR
14:35 54.5 °F /  12.5 °C 27.3 °F /  -2.6 °C 30.3in /  1026.5hPa South 2mph /  3.2km/h 4.6mph /  7.4km/h 35% 0in /  0.0mm CLR
14:40 54.9 °F /  12.7 °C 28.4 °F /  -2.0 °C 30.3in /  1026.5hPa South 1.8mph /  2.9km/h 2.3mph /  3.7km/h 36% 0in /  0.0mm CLR
14:45 55 °F /  12.8 °C 29.8 °F /  -1.2 °C 30.3in /  1026.5hPa SSW 1.8mph /  2.9km/h 4.7mph /  7.6km/h 38% 0in /  0.0mm CLR
14:50 54.9 °F /  12.7 °C 30.4 °F /  -0.9 °C 30.3in /  1026.4hPa SSW 2.9mph /  4.7km/h 2.3mph /  3.7km/h 39% 0in /  0.0mm CLR
14:55 55 °F /  12.8 °C 28.6 °F /  -1.9 °C 30.3in /  1026.4hPa WSW 2.9mph /  4.7km/h 4.6mph /  7.4km/h 36% 0in /  0.0mm CLR
15:00 55.2 °F /  12.9 °C 28.8 °F /  -1.8 °C 30.3in /  1026.4hPa SW 2mph /  3.2km/h 4mph /  6.4km/h 36% 0in /  0.0mm CLR
15:05 55.6 °F /  13.1 °C 28.2 °F /  -2.1 °C 30.3in /  1026.3hPa SSW 2mph /  3.2km/h 4.6mph /  7.4km/h 35% 0in /  0.0mm CLR
15:10 55.6 °F /  13.1 °C 28.2 °F /  -2.1 °C 30.3in /  1026.3hPa SSW 2mph /  3.2km/h 2.3mph /  3.7km/h 35% 0in /  0.0mm CLR
15:15 55.9 °F /  13.3 °C 27.1 °F /  -2.7 °C 30.3in /  1026.3hPa WNW 2mph /  3.2km/h 4.6mph /  7.4km/h 33% 0in /  0.0mm CLR
15:20 55.9 °F /  13.3 °C 26.4 °F /  -3.1 °C 30.3in /  1026.2hPa WNW 2mph /  3.2km/h 4.6mph /  7.4km/h 32% 0in /  0.0mm CLR
15:25 55.9 °F /  13.3 °C 26.4 °F /  -3.1 °C 30.3in /  1026.2hPa WSW 2mph /  3.2km/h 4.6mph /  7.4km/h 32% 0in /  0.0mm CLR
15:30 55.8 °F /  13.2 °C 24.8 °F /  -4.0 °C 30.3in /  1026.2hPa WSW 2.9mph /  4.7km/h 2.3mph /  3.7km/h 30% 0in /  0.0mm CLR
15:35 55.9 °F /  13.3 °C 25 °F /  -3.9 °C 30.3in /  1025.9hPa WNW 2.9mph /  4.7km/h 3.5mph /  5.6km/h 30% 0in /  0.0mm CLR
15:40 56.1 °F /  13.4 °C 24.3 °F /  -4.3 °C 30.3in /  1025.9hPa WNW 2mph /  3.2km/h 2.9mph /  4.7km/h 29% 0in /  0.0mm CLR
15:45 56.5 °F /  13.6 °C 25.3 °F /  -3.7 °C 30.3in /  1025.9hPa WNW 2mph /  3.2km/h 2.3mph /  3.7km/h 30% 0in /  0.0mm CLR
15:50 56.7 °F /  13.7 °C 24.6 °F /  -4.1 °C 30.3in /  1025.9hPa WNW 1.8mph /  2.9km/h 3.5mph /  5.6km/h 29% 0in /  0.0mm CLR
15:55 57 °F /  13.9 °C 25 °F /  -3.9 °C 30.3in /  1025.9hPa WNW 1.8mph /  2.9km/h 2.9mph /  4.7km/h 29% 0in /  0.0mm CLR
16:00 57.4 °F /  14.1 °C 25.3 °F /  -3.7 °C 30.3in /  1025.9hPa West 2mph /  3.2km/h 4mph /  6.4km/h 29% 0in /  0.0mm CLR
16:05 57.6 °F /  14.2 °C 25.5 °F /  -3.6 °C 30.3in /  1025.8hPa West 1.8mph /  2.9km/h   29% 0in /  0.0mm CLR
16:10 57.7 °F /  14.3 °C 25.7 °F /  -3.5 °C 30.3in /  1025.8hPa West 1.8mph /  2.9km/h 2.3mph /  3.7km/h 29% 0in /  0.0mm CLR
16:15 57.7 °F /  14.3 °C 24.8 °F /  -4.0 °C 30.3in /  1025.8hPa West 1.8mph /  2.9km/h 3.5mph /  5.6km/h 28% 0in /  0.0mm CLR
16:20 57.7 °F /  14.3 °C 25.7 °F /  -3.5 °C 30.3in /  1025.8hPa WNW 1.8mph /  2.9km/h 3.5mph /  5.6km/h 29% 0in /  0.0mm CLR
16:25 57.9 °F /  14.4 °C 25 °F /  -3.9 °C 30.3in /  1025.8hPa WNW 1.8mph /  2.9km/h 3.1mph /  5.0km/h 28% 0in /  0.0mm CLR
16:30 57.9 °F /  14.4 °C 25 °F /  -3.9 °C 30.3in /  1025.8hPa WNW 1.8mph /  2.9km/h 2.3mph /  3.7km/h 28% 0in /  0.0mm CLR
16:35 57.9 °F /  14.4 °C 25 °F /  -3.9 °C 30.3in /  1025.7hPa WNW 1.8mph /  2.9km/h 1.4mph /  2.3km/h 28% 0in /  0.0mm CLR
16:40 58.3 °F /  14.6 °C 24.4 °F /  -4.2 °C 30.3in /  1025.7hPa WNW 1.4mph /  2.3km/h 3.5mph /  5.6km/h 27% 0in /  0.0mm CLR
16:45 58.6 °F /  14.8 °C 25.5 °F /  -3.6 °C 30.3in /  1025.7hPa WNW 1.4mph /  2.3km/h 1.2mph /  1.9km/h 28% 0in /  0.0mm CLR
16:50 58.6 °F /  14.8 °C 24.6 °F /  -4.1 °C 30.3in /  1025.9hPa WNW 1.4mph /  2.3km/h   27% 0in /  0.0mm CLR
16:55 58.5 °F /  14.7 °C 24.6 °F /  -4.1 °C 30.3in /  1025.9hPa WNW 1.4mph /  2.3km/h 3.5mph /  5.6km/h 27% 0in /  0.0mm CLR
17:00 58.3 °F /  14.6 °C 24.3 °F /  -4.3 °C 30.3in /  1025.9hPa WNW 1mph /  1.6km/h 3mph /  4.8km/h 27% 0in /  0.0mm CLR
17:05 57.7 °F /  14.3 °C 23.9 °F /  -4.5 °C 30.3in /  1025.8hPa WNW 1.4mph /  2.3km/h 2.3mph /  3.7km/h 27% 0in /  0.0mm CLR
17:10 57.6 °F /  14.2 °C 24.6 °F /  -4.1 °C 30.3in /  1025.8hPa WNW 1.8mph /  2.9km/h 1.2mph /  1.9km/h 28% 0in /  0.0mm CLR
17:15 57.6 °F /  14.2 °C 24.6 °F /  -4.1 °C 30.3in /  1025.8hPa WNW 1.8mph /  2.9km/h 2.9mph /  4.7km/h 28% 0in /  0.0mm CLR
17:20 57.6 °F /  14.2 °C 24.6 °F /  -4.1 °C 30.3in /  1025.9hPa WNW 1.4mph /  2.3km/h   28% 0in /  0.0mm CLR
17:25 57.7 °F /  14.3 °C 24.8 °F /  -4.0 °C 30.3in /  1025.9hPa WNW 1.4mph /  2.3km/h   28% 0in /  0.0mm CLR
17:30 57.7 °F /  14.3 °C 24.8 °F /  -4.0 °C 30.3in /  1025.9hPa Calm     28% 0in /  0.0mm CLR
17:35 57.9 °F /  14.4 °C 25 °F /  -3.9 °C 30.3in /  1026.0hPa Calm   3.5mph /  5.6km/h 28% 0in /  0.0mm CLR
17:40 57.6 °F /  14.2 °C 25.5 °F /  -3.6 °C 30.3in /  1026.0hPa WNW 1.4mph /  2.3km/h 3.5mph /  5.6km/h 29% 0in /  0.0mm CLR
17:45 56.8 °F /  13.8 °C 25 °F /  -3.9 °C 30.3in /  1026.0hPa WNW 1.4mph /  2.3km/h 3.5mph /  5.6km/h 29% 0in /  0.0mm CLR
17:50 56.5 °F /  13.6 °C 25.3 °F /  -3.7 °C 30.3in /  1026.1hPa WNW 2.4mph /  3.9km/h 3.5mph /  5.6km/h 30% 0in /  0.0mm CLR
17:55 56.3 °F /  13.5 °C 25.2 °F /  -3.8 °C 30.3in /  1026.1hPa WNW 2.4mph /  3.9km/h 2.3mph /  3.7km/h 30% 0in /  0.0mm CLR
18:00 55.9 °F /  13.3 °C 25.7 °F /  -3.5 °C 30.3in /  1026.1hPa WNW 2mph /  3.2km/h 3mph /  4.8km/h 31% 0in /  0.0mm CLR
18:05 55.8 °F /  13.2 °C 25.5 °F /  -3.6 °C 30.3in /  1026.1hPa WNW 2mph /  3.2km/h 2.3mph /  3.7km/h 31% 0in /  0.0mm CLR
18:10 55.6 °F /  13.1 °C 26.2 °F /  -3.2 °C 30.3in /  1026.1hPa ESE 1.8mph /  2.9km/h 4.6mph /  7.4km/h 32% 0in /  0.0mm CLR
18:15 55 °F /  12.8 °C 26.4 °F /  -3.1 °C 30.3in /  1026.1hPa ESE 1.8mph /  2.9km/h 4.6mph /  7.4km/h 33% 0in /  0.0mm CLR
18:20 54.7 °F /  12.6 °C 26.8 °F /  -2.9 °C 30.3in /  1026.2hPa ESE 2.4mph /  3.9km/h 3.6mph /  5.8km/h 34% 0in /  0.0mm CLR
18:25 54.3 °F /  12.4 °C 27.1 °F /  -2.7 °C 30.3in /  1026.2hPa ESE 2.4mph /  3.9km/h 3.5mph /  5.6km/h 35% 0in /  0.0mm CLR
18:30 54 °F /  12.2 °C 27.7 °F /  -2.4 °C 30.3in /  1026.2hPa ESE 2.4mph /  3.9km/h 2.9mph /  4.7km/h 36% 0in /  0.0mm CLR
18:35 53.8 °F /  12.1 °C 28 °F /  -2.2 °C 30.3in /  1026.3hPa ESE 2.4mph /  3.9km/h 2.4mph /  3.9km/h 37% 0in /  0.0mm CLR
18:40 53.4 °F /  11.9 °C 27.9 °F /  -2.3 °C 30.3in /  1026.3hPa ESE 2mph /  3.2km/h 2.3mph /  3.7km/h 37% 0in /  0.0mm CLR
18:45 53.2 °F /  11.8 °C 28.2 °F /  -2.1 °C 30.3in /  1026.3hPa ESE 2mph /  3.2km/h 3.5mph /  5.6km/h 38% 0in /  0.0mm CLR
18:50 53.1 °F /  11.7 °C 28.8 °F /  -1.8 °C 30.3in /  1026.5hPa ESE 1.8mph /  2.9km/h 2.3mph /  3.7km/h 39% 0in /  0.0mm CLR
18:55 52.5 °F /  11.4 °C 28.9 °F /  -1.7 °C 30.3in /  1026.5hPa ESE 1.8mph /  2.9km/h 2.4mph /  3.9km/h 40% 0in /  0.0mm CLR
19:00 52.3 °F /  11.3 °C 29.3 °F /  -1.5 °C 30.3in /  1026.5hPa ESE 2mph /  3.2km/h 3mph /  4.8km/h 41% 0in /  0.0mm CLR
19:05 52 °F /  11.1 °C 29.7 °F /  -1.3 °C 30.3in /  1026.7hPa ESE 1.8mph /  2.9km/h 2.4mph /  3.9km/h 42% 0in /  0.0mm CLR
19:10 51.6 °F /  10.9 °C 29.8 °F /  -1.2 °C 30.3in /  1026.7hPa ESE 1.4mph /  2.3km/h 4.6mph /  7.4km/h 43% 0in /  0.0mm CLR
19:15 51.3 °F /  10.7 °C 29.5 °F /  -1.4 °C 30.3in /  1026.7hPa ESE 1.4mph /  2.3km/h 4.6mph /  7.4km/h 43% 0in /  0.0mm CLR
19:20 50.9 °F /  10.5 °C 29.7 °F /  -1.3 °C 30.3in /  1026.7hPa ESE 2.4mph /  3.9km/h 4.6mph /  7.4km/h 44% 0in /  0.0mm CLR
19:25 50.7 °F /  10.4 °C 30 °F /  -1.1 °C 30.3in /  1026.7hPa SE 2.4mph /  3.9km/h 5.8mph /  9.3km/h 45% 0in /  0.0mm CLR
19:30 50.5 °F /  10.3 °C 30 °F /  -1.1 °C 30.3in /  1026.7hPa SE 3.1mph /  5.0km/h 2.4mph /  3.9km/h 45% 0in /  0.0mm CLR
19:35 50.5 °F /  10.3 °C 30.6 °F /  -0.8 °C 30.3in /  1026.7hPa SE 3.1mph /  5.0km/h 1.2mph /  1.9km/h 46% 0in /  0.0mm CLR
19:40 50.4 °F /  10.2 °C 30.4 °F /  -0.9 °C 30.3in /  1026.7hPa SE 1.4mph /  2.3km/h 2.3mph /  3.7km/h 46% 0in /  0.0mm CLR
19:45 50 °F /  10.0 °C 29.5 °F /  -1.4 °C 30.3in /  1026.7hPa WSW 1.4mph /  2.3km/h 4.7mph /  7.6km/h 45% 0in /  0.0mm CLR
19:50 49.6 °F /  9.8 °C 29.1 °F /  -1.6 °C 30.3in /  1026.9hPa WSW 2.4mph /  3.9km/h 4.6mph /  7.4km/h 45% 0in /  0.0mm CLR
19:55 49.5 °F /  9.7 °C 28.4 °F /  -2.0 °C 30.3in /  1026.9hPa WSW 2.4mph /  3.9km/h 3.5mph /  5.6km/h 44% 0in /  0.0mm CLR
20:00 49.6 °F /  9.8 °C 29.1 °F /  -1.6 °C 30.3in /  1026.9hPa WSW 2mph /  3.2km/h 4mph /  6.4km/h 45% 0in /  0.0mm CLR
20:05 49.5 °F /  9.7 °C 28.9 °F /  -1.7 °C 30.3in /  1026.9hPa WSW 2.9mph /  4.7km/h 4.6mph /  7.4km/h 45% 0in /  0.0mm CLR
20:10 49.5 °F /  9.7 °C 28.9 °F /  -1.7 °C 30.3in /  1026.9hPa SW 2.4mph /  3.9km/h 4.6mph /  7.4km/h 45% 0in /  0.0mm CLR
20:15 49.3 °F /  9.6 °C 29.5 °F /  -1.4 °C 30.3in /  1026.9hPa WSW 2.4mph /  3.9km/h 4.6mph /  7.4km/h 46% 0in /  0.0mm CLR
20:20 49.1 °F /  9.5 °C 29.1 °F /  -1.6 °C 30.3in /  1027.0hPa WSW 2.4mph /  3.9km/h 4.6mph /  7.4km/h 46% 0in /  0.0mm CLR
20:25 48.7 °F /  9.3 °C 29.5 °F /  -1.4 °C 30.3in /  1027.0hPa WSW 2.4mph /  3.9km/h 3.5mph /  5.6km/h 47% 0in /  0.0mm CLR
20:30 48.6 °F /  9.2 °C 29.7 °F /  -1.3 °C 30.3in /  1027.0hPa WSW 2.9mph /  4.7km/h 4.6mph /  7.4km/h 48% 0in /  0.0mm CLR
20:35 48.4 °F /  9.1 °C 29.7 °F /  -1.3 °C 30.3in /  1026.9hPa WSW 2.9mph /  4.7km/h 2.3mph /  3.7km/h 48% 0in /  0.0mm CLR
20:40 48.2 °F /  9.0 °C 30.4 °F /  -0.9 °C 30.3in /  1026.9hPa WSW 2mph /  3.2km/h 3.5mph /  5.6km/h 50% 0in /  0.0mm CLR
20:45 48 °F /  8.9 °C 30.2 °F /  -1.0 °C 30.3in /  1026.9hPa WSW 2mph /  3.2km/h 3.5mph /  5.6km/h 50% 0in /  0.0mm CLR
20:50 48 °F /  8.9 °C 30.7 °F /  -0.7 °C 30.3in /  1027.0hPa WSW 2.4mph /  3.9km/h 4.6mph /  7.4km/h 51% 0in /  0.0mm CLR
20:55 47.8 °F /  8.8 °C 30.9 °F /  -0.6 °C 30.3in /  1027.0hPa South 2.4mph /  3.9km/h 4.6mph /  7.4km/h 52% 0in /  0.0mm CLR
21:00 47.7 °F /  8.7 °C 30.9 °F /  -0.6 °C 30.3in /  1027.0hPa South 3mph /  4.8km/h 5mph /  8.0km/h 52% 0in /  0.0mm CLR
21:05 47.5 °F /  8.6 °C 31.3 °F /  -0.4 °C 30.3in /  1027.0hPa South 3.1mph /  5.0km/h 4.6mph /  7.4km/h 53% 0in /  0.0mm CLR
21:10 47.3 °F /  8.5 °C 30.9 °F /  -0.6 °C 30.3in /  1027.0hPa South 3.1mph /  5.0km/h 4.6mph /  7.4km/h 53% 0in /  0.0mm CLR
21:15 47.1 °F /  8.4 °C 30.9 °F /  -0.6 °C 30.3in /  1027.0hPa South 3.1mph /  5.0km/h 2.9mph /  4.7km/h 53% 0in /  0.0mm CLR
21:20 47.1 °F /  8.4 °C 31.3 °F /  -0.4 °C 30.3in /  1027.1hPa South 2.4mph /  3.9km/h 2.4mph /  3.9km/h 54% 0in /  0.0mm CLR
21:25 47.1 °F /  8.4 °C 31.8 °F /  -0.1 °C 30.3in /  1027.1hPa South 2.4mph /  3.9km/h   55% 0in /  0.0mm CLR
21:30 46.9 °F /  8.3 °C 31.6 °F /  -0.2 °C 30.3in /  1027.1hPa South 1.4mph /  2.3km/h 4.6mph /  7.4km/h 55% 0in /  0.0mm CLR
21:35 46.8 °F /  8.2 °C 31.5 °F /  -0.3 °C 30.3in /  1027.2hPa South 1.4mph /  2.3km/h 4.6mph /  7.4km/h 55% 0in /  0.0mm CLR
21:40 46.8 °F /  8.2 °C 31.5 °F /  -0.3 °C 30.3in /  1027.2hPa South 2.9mph /  4.7km/h 2.3mph /  3.7km/h 55% 0in /  0.0mm CLR
21:45 46.6 °F /  8.1 °C 31.6 °F /  -0.2 °C 30.3in /  1027.2hPa South 2.9mph /  4.7km/h 3.5mph /  5.6km/h 56% 0in /  0.0mm CLR
21:50 46.4 °F /  8.0 °C 31.5 °F /  -0.3 °C 30.3in /  1027.3hPa South 2mph /  3.2km/h 3.5mph /  5.6km/h 56% 0in /  0.0mm CLR
21:55 46.2 °F /  7.9 °C 31.5 °F /  -0.3 °C 30.3in /  1027.3hPa South 2mph /  3.2km/h 2mph /  3.2km/h 56% 0in /  0.0mm CLR
22:00 46.2 °F /  7.9 °C 31.5 °F /  -0.3 °C 30.3in /  1027.3hPa South 1mph /  1.6km/h 3mph /  4.8km/h 56% 0in /  0.0mm CLR
22:05 46 °F /  7.8 °C 31.6 °F /  -0.2 °C 30.3in /  1027.3hPa South 1.4mph /  2.3km/h 4.6mph /  7.4km/h 57% 0in /  0.0mm CLR
22:10 45.7 °F /  7.6 °C 31.3 °F /  -0.4 °C 30.3in /  1027.3hPa SSE 2mph /  3.2km/h 5.8mph /  9.3km/h 57% 0in /  0.0mm CLR
22:15 45 °F /  7.2 °C 31.1 °F /  -0.5 °C 30.3in /  1027.3hPa SE 2mph /  3.2km/h 5.8mph /  9.3km/h 58% 0in /  0.0mm CLR
22:20 44.4 °F /  6.9 °C 30.9 °F /  -0.6 °C 30.3in /  1027.3hPa SW 4.3mph /  6.9km/h 5.8mph /  9.3km/h 59% 0in /  0.0mm CLR
22:25 44.2 °F /  6.8 °C 30.7 °F /  -0.7 °C 30.3in /  1027.3hPa WSW 4.3mph /  6.9km/h 6.9mph /  11.1km/h 59% 0in /  0.0mm CLR
22:30 44.4 °F /  6.9 °C 30.9 °F /  -0.6 °C 30.3in /  1027.3hPa WSW 4.7mph /  7.6km/h 5.8mph /  9.3km/h 59% 0in /  0.0mm CLR
22:35 44.4 °F /  6.9 °C 30.6 °F /  -0.8 °C 30.3in /  1027.3hPa WSW 4.7mph /  7.6km/h 4.6mph /  7.4km/h 58% 0in /  0.0mm CLR
22:40 44.4 °F /  6.9 °C 30.6 °F /  -0.8 °C 30.3in /  1027.3hPa WSW 4mph /  6.4km/h 4.6mph /  7.4km/h 58% 0in /  0.0mm CLR
22:45 44.2 °F /  6.8 °C 30.4 °F /  -0.9 °C 30.3in /  1027.3hPa WSW 4mph /  6.4km/h 3.5mph /  5.6km/h 58% 0in /  0.0mm CLR
22:50 44.4 °F /  6.9 °C 30.6 °F /  -0.8 °C 30.3in /  1027.3hPa South 2.4mph /  3.9km/h 4.6mph /  7.4km/h 58% 0in /  0.0mm CLR
22:55 44.2 °F /  6.8 °C 30.7 °F /  -0.7 °C 30.3in /  1027.3hPa South 2.4mph /  3.9km/h 4.6mph /  7.4km/h 59% 0in /  0.0mm CLR
23:00 44.1 °F /  6.7 °C 30.6 °F /  -0.8 °C 30.3in /  1027.3hPa South 3mph /  4.8km/h 6mph /  9.7km/h 59% 0in /  0.0mm CLR
23:05 43.5 °F /  6.4 °C 30.6 °F /  -0.8 °C 30.3in /  1027.4hPa South 3.1mph /  5.0km/h 4.6mph /  7.4km/h 60% 0in /  0.0mm CLR
23:10 43.5 °F /  6.4 °C 30.9 °F /  -0.6 °C 30.3in /  1027.4hPa South 3.6mph /  5.8km/h 4.6mph /  7.4km/h 61% 0in /  0.0mm CLR
23:15 43.5 °F /  6.4 °C 31.5 °F /  -0.3 °C 30.3in /  1027.4hPa South 3.6mph /  5.8km/h 4.6mph /  7.4km/h 62% 0in /  0.0mm CLR
23:20 43.5 °F /  6.4 °C 31.5 °F /  -0.3 °C 30.3in /  1027.5hPa South 3.1mph /  5.0km/h 4.6mph /  7.4km/h 62% 0in /  0.0mm CLR
23:25 43.5 °F /  6.4 °C 31.5 °F /  -0.3 °C 30.3in /  1027.5hPa South 3.1mph /  5.0km/h 5.8mph /  9.3km/h 62% 0in /  0.0mm CLR
23:30 43.3 °F /  6.3 °C 31.6 °F /  -0.2 °C 30.3in /  1027.5hPa South 4mph /  6.4km/h 6.9mph /  11.1km/h 63% 0in /  0.0mm CLR
23:35 43.2 °F /  6.2 °C 31.5 °F /  -0.3 °C 30.3in /  1027.3hPa South 4mph /  6.4km/h 9.2mph /  14.8km/h 63% 0in /  0.0mm CLR
23:40 43 °F /  6.1 °C 31.6 °F /  -0.2 °C 30.3in /  1027.3hPa SSW 5.9mph /  9.5km/h 6.9mph /  11.1km/h 64% 0in /  0.0mm CLR
23:45 42.8 °F /  6.0 °C 31.5 °F /  -0.3 °C 30.3in /  1027.3hPa South 5.9mph /  9.5km/h 6.9mph /  11.1km/h 64% 0in /  0.0mm CLR
23:50 42.8 °F /  6.0 °C 31.5 °F /  -0.3 °C 30.3in /  1027.2hPa South 5.2mph /  8.4km/h 5.8mph /  9.3km/h 64% 0in /  0.0mm CLR
23:55 42.8 °F /  6.0 °C 31.5 °F /  -0.3 °C 30.3in /  1027.2hPa South 5.2mph /  8.4km/h 5.8mph /  9.3km/h 64% 0in /  0.0mm CLR
Murcia-Puente Tocinos, España
Compliments of Weather Underground - 2.75 mb

La estación de MeteoMurcia.com, publica sus datos en los siguientes proyectos:

Weather Underground PWS IMURCIAP2 Meteoclimatic www.awekas.at

W3Counter
Web Analytics